Time;durP1;ratioP1;P1;durP2;ratioP2;P2;SDS_P1;SDS_P2;PMS_P1;PMS_P2;Temp;Humidity;BMP_temperature;BMP_pressure;BME280_temperature;BME280_humidity;BME280_pressure;Samples;Min_cycle;Max_cycle;Signal;HPM_P1;HPM_P2
2022/08/11 00:00:54;;;;;;;;;;;21.60;47.10;;;;;;482242;247;2165;-51
2022/08/11 00:02:55;;;;;;;;;;;21.60;47.10;;;;;;482522;247;1162;-52
2022/08/11 00:04:56;;;;;;;;;;;21.60;47.10;;;;;;482151;247;1208;-51
2022/08/11 00:06:58;;;;;;;;;;;21.60;47.10;;;;;;482156;247;1131;-52
2022/08/11 00:08:59;;;;;;;;;;;21.60;47.10;;;;;;482194;247;1096;-52
2022/08/11 00:11:00;;;;;;;;;;;21.60;47.10;;;;;;482214;247;1099;-51
2022/08/11 00:13:02;;;;;;;;;;;21.60;47.10;;;;;;482124;247;1247;-51
2022/08/11 00:15:03;;;;;;;;;;;21.60;47.00;;;;;;482155;247;1152;-51
2022/08/11 00:17:04;;;;;;;;;;;21.60;47.10;;;;;;482140;247;1047;-51
2022/08/11 00:19:06;;;;;;;;;;;21.60;47.10;;;;;;482158;247;1158;-51
2022/08/11 00:21:07;;;;;;;;;;;21.60;47.10;;;;;;482142;247;2173;-51
2022/08/11 00:23:08;;;;;;;;;;;21.60;47.10;;;;;;482377;247;1115;-52
2022/08/11 00:25:10;;;;;;;;;;;21.60;47.10;;;;;;482174;247;1051;-51
2022/08/11 00:27:11;;;;;;;;;;;21.60;47.10;;;;;;482193;247;1108;-52
2022/08/11 00:29:12;;;;;;;;;;;21.60;47.10;;;;;;482368;247;1280;-51
2022/08/11 00:31:14;;;;;;;;;;;21.60;47.10;;;;;;482514;247;1186;-51
2022/08/11 00:33:15;;;;;;;;;;;21.60;47.10;;;;;;482134;247;1200;-52
2022/08/11 00:35:17;;;;;;;;;;;21.60;47.20;;;;;;482350;247;1117;-51
2022/08/11 00:37:18;;;;;;;;;;;21.60;47.10;;;;;;482135;247;1106;-52
2022/08/11 00:39:19;;;;;;;;;;;21.60;47.10;;;;;;482402;247;1071;-52
2022/08/11 00:41:21;;;;;;;;;;;21.60;47.10;;;;;;482204;247;2204;-52
2022/08/11 00:43:22;;;;;;;;;;;21.60;47.20;;;;;;482101;247;1167;-52
2022/08/11 00:45:24;;;;;;;;;;;21.60;47.20;;;;;;482116;247;1237;-51
2022/08/11 00:47:25;;;;;;;;;;;21.60;47.20;;;;;;482179;247;1274;-52
2022/08/11 00:49:26;;;;;;;;;;;21.60;47.20;;;;;;482246;247;1349;-51
2022/08/11 00:51:28;;;;;;;;;;;21.60;47.20;;;;;;477460;247;1194;-51
2022/08/11 00:53:29;;;;;;;;;;;21.60;47.20;;;;;;482425;247;1150;-52
2022/08/11 00:55:32;;;;;;;;;;;21.70;47.20;;;;;;482396;246;1354;-51
2022/08/11 00:57:32;;;;;;;;;;;21.70;47.20;;;;;;482099;246;2474;-51
2022/08/11 00:59:33;;;;;;;;;;;21.60;47.20;;;;;;482149;247;1313;-52
2022/08/11 01:01:35;;;;;;;;;;;21.70;47.20;;;;;;482378;246;2201;-52
2022/08/11 01:03:36;;;;;;;;;;;21.60;47.20;;;;;;482059;247;1228;-52
2022/08/11 01:05:37;;;;;;;;;;;21.60;47.20;;;;;;482046;247;1233;-52
2022/08/11 01:07:39;;;;;;;;;;;21.60;47.20;;;;;;482006;247;1329;-51
2022/08/11 01:09:40;;;;;;;;;;;21.60;47.20;;;;;;482157;247;1171;-51
2022/08/11 01:11:41;;;;;;;;;;;21.60;47.20;;;;;;482001;247;1243;-50
2022/08/11 01:13:43;;;;;;;;;;;21.60;47.20;;;;;;481995;247;1206;-51
2022/08/11 01:15:44;;;;;;;;;;;21.60;47.20;;;;;;482050;247;1520;-51
2022/08/11 01:17:45;;;;;;;;;;;21.60;47.30;;;;;;481992;247;1233;-51
2022/08/11 01:19:46;;;;;;;;;;;21.60;47.20;;;;;;482387;247;1247;-51
2022/08/11 01:21:48;;;;;;;;;;;21.60;47.30;;;;;;482215;247;2185;-52
2022/08/11 01:23:49;;;;;;;;;;;21.60;47.20;;;;;;482122;246;1197;-51
2022/08/11 01:25:51;;;;;;;;;;;21.70;47.30;;;;;;482265;247;1273;-51
2022/08/11 01:27:52;;;;;;;;;;;21.60;47.20;;;;;;482010;247;1284;-52
2022/08/11 01:29:53;;;;;;;;;;;21.60;47.30;;;;;;482132;247;1231;-52
2022/08/11 01:31:55;;;;;;;;;;;21.60;47.30;;;;;;481995;247;1244;-52
2022/08/11 01:33:56;;;;;;;;;;;21.60;47.30;;;;;;482092;246;1300;-51
2022/08/11 01:35:57;;;;;;;;;;;21.60;47.30;;;;;;482213;247;1276;-52
2022/08/11 01:37:59;;;;;;;;;;;21.60;47.30;;;;;;482114;247;1323;-51
2022/08/11 01:40:00;;;;;;;;;;;21.60;47.30;;;;;;482140;246;1425;-52
2022/08/11 01:44:39;;;;;;;;;;;21.60;47.40;;;;;;475472;247;1315;-51
2022/08/11 01:46:40;;;;;;;;;;;21.60;47.40;;;;;;473626;247;1197;-52
2022/08/11 01:48:41;;;;;;;;;;;21.60;47.30;;;;;;482273;246;1218;-52
2022/08/11 01:50:43;;;;;;;;;;;21.60;47.30;;;;;;481970;247;1224;-51
2022/08/11 01:52:44;;;;;;;;;;;21.60;47.30;;;;;;482017;247;1412;-52
2022/08/11 01:54:47;;;;;;;;;;;21.60;47.40;;;;;;482059;247;1300;-51
2022/08/11 01:56:47;;;;;;;;;;;21.60;47.40;;;;;;482193;246;2240;-52
2022/08/11 01:58:48;;;;;;;;;;;21.70;47.40;;;;;;482306;247;1232;-51
2022/08/11 02:00:50;;;;;;;;;;;21.60;47.40;;;;;;482145;246;1340;-51
2022/08/11 02:02:52;;;;;;;;;;;21.60;47.40;;;;;;482158;247;2197;-51
2022/08/11 02:04:52;;;;;;;;;;;21.60;47.40;;;;;;482065;247;1677;-52
2022/08/11 02:06:54;;;;;;;;;;;21.60;47.40;;;;;;482063;247;1301;-51
2022/08/11 02:08:55;;;;;;;;;;;21.60;47.40;;;;;;482270;247;1565;-51
2022/08/11 02:13:15;;;;;;;;;;;21.60;47.40;;;;;;481752;247;1371;-52
2022/08/11 02:15:17;;;;;;;;;;;21.60;47.40;;;;;;478432;247;1223;-51
2022/08/11 02:17:18;;;;;;;;;;;21.60;47.40;;;;;;470958;252;1298;-52
2022/08/11 02:23:58;;;;;;;;;;;21.60;47.40;;;;;;476662;247;1251;-51
2022/08/11 02:25:59;;;;;;;;;;;21.60;47.40;;;;;;482304;247;1206;-51
2022/08/11 02:28:01;;;;;;;;;;;21.60;47.40;;;;;;482028;247;1300;-51
2022/08/11 02:30:06;;;;;;;;;;;21.60;47.50;;;;;;480433;247;1557;-51
2022/08/11 02:34:24;;;;;;;;;;;21.60;47.50;;;;;;481874;247;1321;-51
2022/08/11 02:36:26;;;;;;;;;;;21.60;47.50;;;;;;482305;247;1185;-51
2022/08/11 02:38:27;;;;;;;;;;;21.60;47.50;;;;;;482169;247;2328;-51
2022/08/11 02:40:30;;;;;;;;;;;21.60;47.50;;;;;;482146;247;1151;-51
2022/08/11 02:42:31;;;;;;;;;;;21.60;47.50;;;;;;482554;247;2154;-52
2022/08/11 02:44:32;;;;;;;;;;;21.60;47.50;;;;;;482556;247;1139;-51
2022/08/11 02:46:33;;;;;;;;;;;21.60;47.50;;;;;;481969;247;1227;-52
2022/08/11 02:50:54;;;;;;;;;;;21.60;47.50;;;;;;476121;247;1258;-51
2022/08/11 02:52:57;;;;;;;;;;;21.60;47.50;;;;;;476761;247;1274;-51
2022/08/11 02:54:58;;;;;;;;;;;21.60;47.50;;;;;;482549;246;1524;-51
2022/08/11 02:56:59;;;;;;;;;;;21.60;47.60;;;;;;482496;247;1223;-51
2022/08/11 03:01:20;;;;;;;;;;;21.60;47.50;;;;;;476644;247;1266;-51
2022/08/11 03:03:21;;;;;;;;;;;21.60;47.60;;;;;;482226;247;1265;-52
2022/08/11 03:05:23;;;;;;;;;;;21.60;47.60;;;;;;482482;247;1234;-51
2022/08/11 03:07:24;;;;;;;;;;;21.60;47.60;;;;;;482409;247;1197;-52
2022/08/11 03:09:25;;;;;;;;;;;21.60;47.50;;;;;;482067;247;1337;-52
2022/08/11 03:18:25;;;;;;;;;;;21.60;47.60;;;;;;475004;247;1241;-51
2022/08/11 03:20:26;;;;;;;;;;;21.60;47.60;;;;;;471411;252;1622;-52
2022/08/11 03:22:27;;;;;;;;;;;21.60;47.60;;;;;;472566;247;2167;-52
2022/08/11 03:24:28;;;;;;;;;;;21.60;47.60;;;;;;482499;247;1193;-52
2022/08/11 03:26:30;;;;;;;;;;;21.60;47.70;;;;;;482349;247;1210;-52
2022/08/11 03:28:31;;;;;;;;;;;21.60;47.60;;;;;;482537;247;1292;-50
2022/08/11 03:30:32;;;;;;;;;;;21.60;47.60;;;;;;481386;247;1189;-52
2022/08/11 03:32:34;;;;;;;;;;;21.60;47.60;;;;;;472580;247;1268;-52
2022/08/11 03:34:36;;;;;;;;;;;21.60;47.60;;;;;;482157;247;1210;-51
2022/08/11 03:36:40;;;;;;;;;;;21.60;47.60;;;;;;482103;247;2077;-52
2022/08/11 03:38:38;;;;;;;;;;;21.60;47.60;;;;;;482119;246;1876;-52
2022/08/11 03:42:59;;;;;;;;;;;21.60;47.70;;;;;;482056;247;2209;-51
2022/08/11 03:45:00;;;;;;;;;;;21.60;47.70;;;;;;482073;247;1222;-51
2022/08/11 03:47:02;;;;;;;;;;;21.60;47.70;;;;;;482010;247;1327;-51
2022/08/11 03:49:03;;;;;;;;;;;21.60;47.70;;;;;;482085;247;1566;-51
2022/08/11 03:51:04;;;;;;;;;;;21.60;47.70;;;;;;482215;247;1234;-51
2022/08/11 03:53:06;;;;;;;;;;;21.60;47.70;;;;;;482002;247;1252;-52
2022/08/11 03:55:07;;;;;;;;;;;21.60;47.70;;;;;;482015;247;1206;-51
2022/08/11 03:57:08;;;;;;;;;;;21.60;47.60;;;;;;482124;247;1228;-51
2022/08/11 03:59:10;;;;;;;;;;;21.60;47.70;;;;;;481999;247;1247;-51
2022/08/11 04:01:11;;;;;;;;;;;21.60;47.70;;;;;;479201;247;1427;-51
2022/08/11 04:03:12;;;;;;;;;;;21.60;47.70;;;;;;471142;252;2202;-52
2022/08/11 04:05:14;;;;;;;;;;;21.60;47.70;;;;;;473740;247;1180;-51
2022/08/11 04:07:15;;;;;;;;;;;21.60;47.70;;;;;;481713;247;1293;-52
2022/08/11 04:09:16;;;;;;;;;;;21.60;47.70;;;;;;481995;246;1216;-51
2022/08/11 04:11:18;;;;;;;;;;;21.60;47.70;;;;;;481879;246;1284;-52
2022/08/11 04:13:19;;;;;;;;;;;21.60;47.70;;;;;;482019;247;1193;-51
2022/08/11 04:17:40;;;;;;;;;;;21.60;47.70;;;;;;480621;247;1248;-51
2022/08/11 04:19:41;;;;;;;;;;;21.60;47.70;;;;;;482127;247;1182;-51
2022/08/11 04:21:42;;;;;;;;;;;21.60;47.70;;;;;;482163;247;1621;-51
2022/08/11 04:23:44;;;;;;;;;;;21.60;47.70;;;;;;481883;247;2200;-51
2022/08/11 04:25:45;;;;;;;;;;;21.60;47.70;;;;;;482033;247;1300;-51
2022/08/11 04:27:46;;;;;;;;;;;21.60;47.70;;;;;;481973;247;1221;-52
2022/08/11 04:29:47;;;;;;;;;;;21.60;47.70;;;;;;482002;246;1194;-51
2022/08/11 04:31:49;;;;;;;;;;;21.60;47.70;;;;;;481571;247;1199;-51
2022/08/11 04:33:51;;;;;;;;;;;21.60;47.70;;;;;;482029;247;1186;-51
2022/08/11 04:35:52;;;;;;;;;;;21.60;47.70;;;;;;481974;246;1175;-51
2022/08/11 04:37:53;;;;;;;;;;;21.60;47.70;;;;;;481998;247;1138;-51
2022/08/11 04:39:55;;;;;;;;;;;21.60;47.70;;;;;;482067;247;1298;-51
2022/08/11 04:44:15;;;;;;;;;;;21.60;47.70;;;;;;481688;247;1316;-51
2022/08/11 04:46:17;;;;;;;;;;;21.60;47.80;;;;;;482011;247;1203;-51
2022/08/11 05:02:14;;;;;;;;;;;21.60;47.80;;;;;;481694;247;2185;-52
2022/08/11 05:06:36;;;;;;;;;;;21.60;47.80;;;;;;481851;246;1162;-52
2022/08/11 05:08:37;;;;;;;;;;;21.60;47.80;;;;;;481892;247;1311;-52
2022/08/11 05:10:38;;;;;;;;;;;21.60;47.80;;;;;;481868;247;1256;-51
2022/08/11 05:12:40;;;;;;;;;;;21.50;47.80;;;;;;481912;247;1575;-51
2022/08/11 05:35:34;;;;;;;;;;;21.60;47.80;;;;;;481709;247;1136;-51
2022/08/11 05:37:36;;;;;;;;;;;21.60;47.80;;;;;;481867;247;1169;-51
2022/08/11 05:58:11;;;;;;;;;;;21.60;47.80;;;;;;478923;247;1361;-52
2022/08/11 06:00:12;;;;;;;;;;;21.60;47.80;;;;;;481805;247;1237;-51
2022/08/11 06:02:13;;;;;;;;;;;21.60;47.80;;;;;;481747;247;1170;-51
2022/08/11 06:04:15;;;;;;;;;;;21.60;47.80;;;;;;481963;247;1442;-51
2022/08/11 06:06:16;;;;;;;;;;;21.60;47.80;;;;;;481803;247;1205;-51
2022/08/11 06:08:17;;;;;;;;;;;21.60;47.80;;;;;;481647;247;1266;-51
2022/08/11 06:10:19;;;;;;;;;;;21.70;47.80;;;;;;481502;247;1358;-52
2022/08/11 06:12:20;;;;;;;;;;;21.70;47.70;;;;;;481523;247;1345;-51
2022/08/11 06:14:21;;;;;;;;;;;21.70;47.60;;;;;;481818;247;1149;-51
2022/08/11 06:16:23;;;;;;;;;;;21.70;47.40;;;;;;481645;246;1607;-52
2022/08/11 06:18:24;;;;;;;;;;;21.70;47.40;;;;;;481858;246;1609;-51
2022/08/11 06:20:25;;;;;;;;;;;21.60;47.30;;;;;;481708;247;1162;-51
2022/08/11 06:22:27;;;;;;;;;;;21.70;47.30;;;;;;481467;247;2192;-51
2022/08/11 06:24:30;;;;;;;;;;;21.70;47.20;;;;;;481716;247;1466;-52
2022/08/11 06:26:30;;;;;;;;;;;21.60;47.10;;;;;;481782;247;2215;-51
2022/08/11 06:28:31;;;;;;;;;;;21.70;47.10;;;;;;481630;247;1312;-51
2022/08/11 06:30:33;;;;;;;;;;;21.70;47.00;;;;;;481607;247;1273;-51
2022/08/11 06:32:34;;;;;;;;;;;21.70;46.90;;;;;;479112;247;1914;-51
2022/08/11 06:34:35;;;;;;;;;;;21.70;46.90;;;;;;479109;247;1173;-51
2022/08/11 06:36:37;;;;;;;;;;;21.70;46.80;;;;;;481545;246;1258;-51
2022/08/11 06:38:38;;;;;;;;;;;21.60;46.80;;;;;;481597;246;1201;-50
2022/08/11 06:40:40;;;;;;;;;;;21.60;46.70;;;;;;481671;247;1248;-51
2022/08/11 06:42:41;;;;;;;;;;;21.60;46.70;;;;;;481708;247;2166;-51
2022/08/11 06:44:42;;;;;;;;;;;21.70;46.70;;;;;;481598;247;1143;-51
2022/08/11 06:46:43;;;;;;;;;;;21.70;46.70;;;;;;481533;247;1221;-52
2022/08/11 06:48:45;;;;;;;;;;;21.60;46.50;;;;;;481588;247;1258;-51
2022/08/11 06:53:05;;;;;;;;;;;21.60;46.40;;;;;;481706;247;1315;-51
2022/08/11 06:55:07;;;;;;;;;;;21.70;46.40;;;;;;481639;247;1181;-51
2022/08/11 07:01:46;;;;;;;;;;;21.70;46.40;;;;;;481487;247;1170;-51
2022/08/11 07:03:47;;;;;;;;;;;21.70;46.30;;;;;;481562;247;2212;-51
2022/08/11 07:05:49;;;;;;;;;;;21.60;46.30;;;;;;481473;247;1262;-51
2022/08/11 07:17:08;;;;;;;;;;;21.60;46.10;;;;;;481305;247;1582;-51
2022/08/11 07:30:46;;;;;;;;;;;21.60;45.90;;;;;;478487;247;1224;-51
2022/08/11 07:32:48;;;;;;;;;;;21.60;45.80;;;;;;481296;246;1189;-52
2022/08/11 07:34:49;;;;;;;;;;;21.60;45.80;;;;;;481425;247;1373;-52
2022/08/11 07:36:50;;;;;;;;;;;21.60;45.80;;;;;;481414;247;1322;-52
2022/08/11 07:38:52;;;;;;;;;;;21.60;45.70;;;;;;481332;247;1229;-51
2022/08/11 07:40:53;;;;;;;;;;;21.60;45.80;;;;;;481373;247;1255;-51
2022/08/11 07:42:54;;;;;;;;;;;21.60;45.70;;;;;;481397;247;2197;-52
2022/08/11 07:54:14;;;;;;;;;;;21.70;45.60;;;;;;481480;247;1524;-51
2022/08/11 07:56:15;;;;;;;;;;;21.60;45.60;;;;;;481196;246;1275;-51
2022/08/11 08:19:09;;;;;;;;;;;21.60;45.50;;;;;;481498;247;1205;-52
2022/08/11 08:21:14;;;;;;;;;;;21.70;45.40;;;;;;481269;247;1425;-51
2022/08/11 08:23:16;;;;;;;;;;;21.70;45.30;;;;;;481277;247;2234;-51
2022/08/11 08:25:17;;;;;;;;;;;21.70;45.30;;;;;;480692;247;2200;-51
2022/08/11 08:27:18;;;;;;;;;;;21.70;45.40;;;;;;481467;246;1218;-51
2022/08/11 08:31:39;;;;;;;;;;;21.70;45.30;;;;;;481561;247;1312;-52
2022/08/11 08:33:40;;;;;;;;;;;21.70;45.30;;;;;;481485;247;1243;-52
2022/08/11 08:35:43;;;;;;;;;;;21.70;45.40;;;;;;480837;247;1206;-51
2022/08/11 08:37:43;;;;;;;;;;;21.70;45.40;;;;;;481777;247;1315;-51
2022/08/11 08:39:44;;;;;;;;;;;21.70;45.50;;;;;;481442;247;1268;-51
2022/08/11 08:41:46;;;;;;;;;;;21.70;45.50;;;;;;481595;247;1611;-51
2022/08/11 08:43:47;;;;;;;;;;;21.70;45.50;;;;;;481395;247;2184;-51
2022/08/11 08:45:48;;;;;;;;;;;21.70;45.40;;;;;;481399;247;1417;-51
2022/08/11 08:47:50;;;;;;;;;;;21.70;45.40;;;;;;481692;247;1207;-51
2022/08/11 08:49:51;;;;;;;;;;;21.60;45.30;;;;;;481486;247;1544;-51
2022/08/11 08:51:52;;;;;;;;;;;21.60;45.30;;;;;;481325;247;1283;-51
2022/08/11 08:53:54;;;;;;;;;;;21.60;45.30;;;;;;481450;247;1150;-51
2022/08/11 08:55:55;;;;;;;;;;;21.60;45.30;;;;;;481404;247;1177;-51
2022/08/11 08:57:59;;;;;;;;;;;21.60;45.20;;;;;;481303;247;1151;-51
2022/08/11 08:59:58;;;;;;;;;;;21.70;45.30;;;;;;481262;247;1337;-52
2022/08/11 09:02:00;;;;;;;;;;;21.60;45.30;;;;;;481268;247;1130;-50
2022/08/11 09:04:01;;;;;;;;;;;21.60;45.20;;;;;;481325;247;2200;-51
2022/08/11 09:06:02;;;;;;;;;;;21.60;45.20;;;;;;481305;247;1159;-52
2022/08/11 09:08:04;;;;;;;;;;;21.70;45.20;;;;;;481358;246;1287;-51
2022/08/11 09:10:05;;;;;;;;;;;21.70;45.20;;;;;;481266;247;1254;-51
2022/08/11 09:12:07;;;;;;;;;;;21.60;45.10;;;;;;481348;247;1203;-51
2022/08/11 09:14:08;;;;;;;;;;;21.70;45.10;;;;;;481381;247;1160;-51
2022/08/11 09:16:09;;;;;;;;;;;21.70;45.10;;;;;;481358;247;1265;-51
2022/08/11 09:18:11;;;;;;;;;;;21.70;45.10;;;;;;481453;247;1258;-52
2022/08/11 09:20:12;;;;;;;;;;;21.60;45.00;;;;;;481396;247;1243;-52
2022/08/11 09:27:01;;;;;;;;;;;21.70;45.00;;;;;;480733;247;1261;-51
2022/08/11 09:29:03;;;;;;;;;;;21.70;45.00;;;;;;475503;247;2379;-51
2022/08/11 09:31:03;;;;;;;;;;;21.70;45.00;;;;;;481398;246;1941;-51
2022/08/11 09:33:05;;;;;;;;;;;21.70;45.00;;;;;;481496;246;1218;-51
2022/08/11 09:35:06;;;;;;;;;;;21.70;45.00;;;;;;481448;247;1299;-52
2022/08/11 09:41:54;;;;;;;;;;;21.70;44.90;;;;;;474360;246;1295;-51
2022/08/11 09:46:14;;;;;;;;;;;21.70;44.80;;;;;;481112;247;1314;-51
2022/08/11 09:48:17;;;;;;;;;;;21.70;44.80;;;;;;481517;247;1166;-51
2022/08/11 09:50:18;;;;;;;;;;;21.70;44.80;;;;;;481350;246;1704;-51
2022/08/11 09:52:19;;;;;;;;;;;21.70;44.80;;;;;;481352;247;1181;-51
2022/08/11 09:54:21;;;;;;;;;;;21.70;44.70;;;;;;481475;247;1249;-51
2022/08/11 09:58:41;;;;;;;;;;;21.70;44.70;;;;;;481299;247;1136;-52
2022/08/11 10:00:42;;;;;;;;;;;21.70;44.70;;;;;;481375;246;1203;-51
2022/08/11 10:02:44;;;;;;;;;;;21.70;44.70;;;;;;481419;247;1195;-52
2022/08/11 10:04:45;;;;;;;;;;;21.70;44.70;;;;;;481089;246;2197;-51
2022/08/11 10:07:01;;;;;;;;;;;21.70;44.70;;;;;;481339;247;1199;-51
2022/08/11 10:09:04;;;;;;;;;;;21.70;44.70;;;;;;480502;247;1151;-51
2022/08/11 10:11:04;;;;;;;;;;;21.70;44.70;;;;;;481347;247;2265;-52
2022/08/11 10:13:06;;;;;;;;;;;21.70;44.70;;;;;;480972;247;1219;-51
2022/08/11 10:17:26;;;;;;;;;;;21.70;44.60;;;;;;481289;247;1265;-52
2022/08/11 10:19:28;;;;;;;;;;;21.70;44.70;;;;;;481496;247;1229;-51
2022/08/11 10:21:29;;;;;;;;;;;21.70;44.80;;;;;;481570;247;1177;-51
2022/08/11 10:28:09;;;;;;;;;;;21.70;44.80;;;;;;481482;247;1255;-51
2022/08/11 10:34:49;;;;;;;;;;;21.70;44.70;;;;;;481403;247;1323;-51
2022/08/11 10:36:50;;;;;;;;;;;21.70;44.70;;;;;;481495;247;1307;-52
2022/08/11 10:38:52;;;;;;;;;;;21.70;44.60;;;;;;481487;247;1331;-52
2022/08/11 10:43:01;;;;;;;;;;;21.70;44.70;;;;;;481002;247;1272;-51
2022/08/11 10:43:12;;;;;;;;;;;21.70;44.60;;;;;;481502;246;1391;-52
2022/08/11 10:47:34;;;;;;;;;;;21.70;44.50;;;;;;481570;247;1205;-51
2022/08/11 10:49:35;;;;;;;;;;;21.70;44.50;;;;;;481536;247;1190;-51
2022/08/11 10:58:48;;;;;;;;;;;21.70;44.40;;;;;;481331;247;1169;-51
2022/08/11 11:00:50;;;;;;;;;;;21.70;44.30;;;;;;481331;247;1215;-51
2022/08/11 11:02:50;;;;;;;;;;;21.70;44.40;;;;;;481419;247;2249;-51
2022/08/11 11:04:52;;;;;;;;;;;21.70;44.40;;;;;;481502;247;2201;-51
2022/08/11 11:06:53;;;;;;;;;;;21.70;44.30;;;;;;481206;247;1218;-51
2022/08/11 11:08:55;;;;;;;;;;;21.70;44.30;;;;;;481565;247;1243;-51
2022/08/11 11:10:56;;;;;;;;;;;21.70;44.30;;;;;;481383;247;1298;-51
2022/08/11 11:19:55;;;;;;;;;;;21.70;44.20;;;;;;481359;247;1605;-51
2022/08/11 11:22:36;;;;;;;;;;;21.70;44.20;;;;;;481470;246;1269;-51
2022/08/11 11:23:58;;;;;;;;;;;21.70;44.10;;;;;;481504;247;2193;-51
2022/08/11 11:26:13;;;;;;;;;;;21.70;44.10;;;;;;481447;247;1206;-52
2022/08/11 11:28:12;;;;;;;;;;;21.70;44.20;;;;;;481206;247;1289;-51
2022/08/11 11:30:14;;;;;;;;;;;21.70;44.20;;;;;;481516;247;1497;-51
2022/08/11 11:32:16;;;;;;;;;;;21.70;44.20;;;;;;481484;246;1255;-52
2022/08/11 11:34:17;;;;;;;;;;;21.70;44.10;;;;;;481632;246;1220;-51
2022/08/11 11:36:18;;;;;;;;;;;21.70;44.20;;;;;;481385;247;1202;-51
2022/08/11 11:38:20;;;;;;;;;;;21.70;44.20;;;;;;481473;247;1214;-51
2022/08/11 11:40:21;;;;;;;;;;;21.70;44.10;;;;;;481424;247;1239;-51
2022/08/11 11:42:22;;;;;;;;;;;21.70;44.00;;;;;;481277;246;1221;-52
2022/08/11 11:44:24;;;;;;;;;;;21.80;44.00;;;;;;481351;246;2178;-51
2022/08/11 11:46:25;;;;;;;;;;;21.70;44.00;;;;;;481514;247;1298;-51
2022/08/11 11:48:27;;;;;;;;;;;21.70;44.10;;;;;;481442;247;1168;-51
2022/08/11 11:50:28;;;;;;;;;;;21.70;44.00;;;;;;481330;247;1788;-51
2022/08/11 11:52:29;;;;;;;;;;;21.70;44.10;;;;;;481227;247;1291;-52
2022/08/11 11:54:31;;;;;;;;;;;21.70;44.00;;;;;;481176;247;1335;-51
2022/08/11 11:56:32;;;;;;;;;;;21.70;44.00;;;;;;481343;247;1281;-51
2022/08/11 12:03:31;;;;;;;;;;;21.70;44.00;;;;;;466828;255;1281;-51
2022/08/11 12:05:32;;;;;;;;;;;21.70;44.10;;;;;;466943;254;2224;-52
2022/08/11 12:09:52;;;;;;;;;;;21.70;44.30;;;;;;466567;255;1317;-51
2022/08/11 12:14:12;;;;;;;;;;;21.70;44.60;;;;;;465711;254;1676;-51
2022/08/11 12:16:14;;;;;;;;;;;21.70;44.50;;;;;;465756;255;1258;-51
2022/08/11 12:18:15;;;;;;;;;;;21.70;44.40;;;;;;465687;255;1610;-51
2022/08/11 12:20:19;;;;;;;;;;;21.70;44.40;;;;;;465933;255;1279;-52
2022/08/11 12:29:15;;;;;;;;;;;21.70;44.20;;;;;;465780;254;1665;-51
2022/08/11 12:31:16;;;;;;;;;;;21.70;44.30;;;;;;465480;255;1597;-51
2022/08/11 12:33:18;;;;;;;;;;;21.70;44.20;;;;;;465668;255;1646;-51
2022/08/11 12:35:19;;;;;;;;;;;21.70;44.10;;;;;;477714;246;1183;-51
2022/08/11 12:37:22;;;;;;;;;;;21.70;44.20;;;;;;482429;246;1359;-51
2022/08/11 12:45:26;;;;;;;;;;;21.70;44.10;;;;;;482515;246;1800;-51
2022/08/11 12:46:02;;;;;;;;;;;21.80;44.10;;;;;;481418;247;2154;-52
2022/08/11 12:52:43;;;;;;;;;;;21.70;44.00;;;;;;480634;247;1265;-51
2022/08/11 12:54:44;;;;;;;;;;;21.70;44.10;;;;;;481743;247;1166;-52
2022/08/11 13:06:02;;;;;;;;;;;21.80;43.90;;;;;;480955;247;2153;-52
2022/08/11 13:08:03;;;;;;;;;;;21.70;43.90;;;;;;481429;246;1326;-51
2022/08/11 13:10:05;;;;;;;;;;;21.70;43.90;;;;;;481566;247;1266;-50
2022/08/11 13:14:26;;;;;;;;;;;21.70;43.80;;;;;;481087;247;1192;-52
2022/08/11 13:16:27;;;;;;;;;;;21.70;43.80;;;;;;481227;247;1249;-52
2022/08/11 13:18:28;;;;;;;;;;;21.70;43.80;;;;;;481291;247;1272;-52
2022/08/11 13:20:30;;;;;;;;;;;21.70;43.80;;;;;;481344;247;1202;-51
2022/08/11 13:22:31;;;;;;;;;;;21.70;43.80;;;;;;481201;247;1261;-52
2022/08/11 13:24:33;;;;;;;;;;;21.70;43.80;;;;;;481460;247;2165;-52
2022/08/11 13:26:34;;;;;;;;;;;21.80;43.80;;;;;;481297;247;1200;-51
2022/08/11 13:28:36;;;;;;;;;;;21.70;43.80;;;;;;481381;247;1357;-52
2022/08/11 13:32:58;;;;;;;;;;;21.70;43.70;;;;;;478193;246;1200;-51
2022/08/11 13:34:59;;;;;;;;;;;21.70;43.70;;;;;;481194;247;1204;-51
2022/08/11 13:37:00;;;;;;;;;;;21.70;43.70;;;;;;481398;247;1467;-51
2022/08/11 13:39:02;;;;;;;;;;;21.70;43.70;;;;;;480698;247;1195;-52
2022/08/11 13:41:36;;;;;;;;;;;21.70;43.70;;;;;;481463;246;1265;-52
2022/08/11 13:43:05;;;;;;;;;;;21.70;43.70;;;;;;481619;246;1424;-51
2022/08/11 13:45:07;;;;;;;;;;;21.70;43.70;;;;;;481337;246;2150;-51
2022/08/11 13:47:08;;;;;;;;;;;21.70;43.60;;;;;;481470;246;1155;-51
2022/08/11 13:49:09;;;;;;;;;;;21.70;43.60;;;;;;481346;247;1219;-52
2022/08/11 13:53:30;;;;;;;;;;;21.70;43.60;;;;;;481369;247;1336;-52
2022/08/11 13:55:31;;;;;;;;;;;21.70;43.60;;;;;;481433;247;1349;-51
2022/08/11 13:57:33;;;;;;;;;;;21.70;43.60;;;;;;481281;247;1349;-51
2022/08/11 13:59:34;;;;;;;;;;;21.70;43.80;;;;;;481428;247;1262;-52
2022/08/11 14:01:35;;;;;;;;;;;21.70;43.80;;;;;;481480;247;1192;-51
2022/08/11 14:03:37;;;;;;;;;;;21.70;43.80;;;;;;481546;247;1176;-52
2022/08/11 14:05:38;;;;;;;;;;;21.70;43.70;;;;;;481600;246;2200;-51
2022/08/11 14:07:39;;;;;;;;;;;21.70;43.70;;;;;;481205;247;1175;-51
2022/08/11 14:09:40;;;;;;;;;;;21.70;43.70;;;;;;481675;247;1244;-51
2022/08/11 14:14:01;;;;;;;;;;;21.80;43.60;;;;;;481356;247;1233;-51
2022/08/11 14:16:03;;;;;;;;;;;21.70;43.60;;;;;;481303;246;1155;-51
2022/08/11 14:18:04;;;;;;;;;;;21.80;43.60;;;;;;481510;247;1608;-52
2022/08/11 14:20:05;;;;;;;;;;;21.80;43.60;;;;;;481532;247;1292;-51
2022/08/11 14:22:06;;;;;;;;;;;21.70;43.60;;;;;;481504;247;1215;-51
2022/08/11 14:24:10;;;;;;;;;;;21.70;43.50;;;;;;481696;246;1253;-51
2022/08/11 14:26:26;;;;;;;;;;;21.70;43.50;;;;;;481556;247;2245;-52
2022/08/11 14:28:27;;;;;;;;;;;21.80;43.50;;;;;;481463;247;2398;-51
2022/08/11 14:32:47;;;;;;;;;;;21.80;43.50;;;;;;481494;247;1279;-51
2022/08/11 14:34:49;;;;;;;;;;;21.70;43.40;;;;;;481037;247;1346;-51
2022/08/11 14:36:51;;;;;;;;;;;21.70;43.40;;;;;;481289;247;1272;-51
2022/08/11 14:38:53;;;;;;;;;;;21.70;43.40;;;;;;481586;246;1418;-51
2022/08/11 14:47:51;;;;;;;;;;;21.70;43.30;;;;;;481255;247;1320;-52
2022/08/11 14:49:53;;;;;;;;;;;21.70;43.30;;;;;;481598;247;1227;-52
2022/08/11 14:51:54;;;;;;;;;;;21.70;43.30;;;;;;481679;247;1253;-51
2022/08/11 14:56:34;;;;;;;;;;;21.70;43.20;;;;;;481681;247;1157;-51
2022/08/11 14:58:16;;;;;;;;;;;21.70;43.20;;;;;;481581;247;2007;-51
2022/08/11 15:00:18;;;;;;;;;;;21.80;43.20;;;;;;481580;247;1221;-51
2022/08/11 15:04:38;;;;;;;;;;;21.70;43.10;;;;;;474822;247;1219;-51
2022/08/11 15:06:39;;;;;;;;;;;21.70;43.10;;;;;;471724;247;2154;-51
2022/08/11 15:08:56;;;;;;;;;;;21.80;43.10;;;;;;481540;247;1197;-52
2022/08/11 15:10:57;;;;;;;;;;;21.70;43.10;;;;;;481674;247;1206;-51
2022/08/11 15:12:58;;;;;;;;;;;21.70;43.10;;;;;;481665;247;1291;-52
2022/08/11 15:17:19;;;;;;;;;;;21.70;43.10;;;;;;481706;247;1325;-51
2022/08/11 15:19:20;;;;;;;;;;;21.70;43.10;;;;;;481812;246;1297;-52
2022/08/11 15:26:06;;;;;;;;;;;21.70;43.00;;;;;;478738;246;2184;-52
2022/08/11 15:37:28;;;;;;;;;;;21.70;43.00;;;;;;480990;247;1213;-51
2022/08/11 15:39:28;;;;;;;;;;;21.70;43.00;;;;;;476295;247;2344;-51
2022/08/11 15:46:09;;;;;;;;;;;21.70;43.20;;;;;;480838;248;2166;-51
2022/08/11 15:48:09;;;;;;;;;;;21.70;43.20;;;;;;481342;247;1388;-52
2022/08/11 15:50:11;;;;;;;;;;;21.70;43.20;;;;;;481710;247;1321;-51
2022/08/11 15:52:12;;;;;;;;;;;21.70;43.20;;;;;;481902;247;1211;-51
2022/08/11 15:54:15;;;;;;;;;;;21.70;43.20;;;;;;481866;247;1212;-51
2022/08/11 15:56:16;;;;;;;;;;;21.70;43.10;;;;;;481927;247;1210;-51
2022/08/11 16:05:16;;;;;;;;;;;21.70;43.00;;;;;;481006;247;1245;-51
2022/08/11 16:07:17;;;;;;;;;;;21.70;43.00;;;;;;481042;247;2114;-52
2022/08/11 16:09:18;;;;;;;;;;;21.70;43.00;;;;;;481898;247;1367;-51
2022/08/11 16:11:20;;;;;;;;;;;21.70;43.00;;;;;;482403;247;1275;-51
2022/08/11 16:18:07;;;;;;;;;;;21.70;42.90;;;;;;472234;248;1304;-51
2022/08/11 16:20:08;;;;;;;;;;;21.80;42.90;;;;;;471190;252;1131;-52
2022/08/11 16:22:10;;;;;;;;;;;21.70;42.90;;;;;;477699;247;1121;-52
2022/08/11 16:24:11;;;;;;;;;;;21.70;42.90;;;;;;481858;247;1193;-51
2022/08/11 16:26:12;;;;;;;;;;;21.70;42.80;;;;;;481844;247;2202;-51
2022/08/11 16:28:13;;;;;;;;;;;21.70;42.90;;;;;;481991;247;1329;-51
2022/08/11 16:30:15;;;;;;;;;;;21.70;42.90;;;;;;481903;247;1160;-51
2022/08/11 16:32:16;;;;;;;;;;;21.70;42.90;;;;;;481975;246;1187;-51
2022/08/11 16:39:08;;;;;;;;;;;21.70;42.80;;;;;;467318;255;1594;-52
2022/08/11 16:41:09;;;;;;;;;;;21.70;42.80;;;;;;480851;246;1316;-51
2022/08/11 16:47:49;;;;;;;;;;;21.70;42.80;;;;;;478389;247;1274;-52